Página principal
METAR-TAF:

METAR-TAF

Aeroportos :

Aeroporto Internacional de Luxemburgo-Findel

Luxemburgo, Luxemburgo

latitude: 49-37N, longitude: 006-13E, altura: 376 m

Observação actual do tempo

O boletim foi feito há 23 minutos, às 18:20 UTC
Vento 9 kt de es-nordeste
Temperatura 6°C
Humidade 52%
Pressão 1035 hPa
Visibilidade 10 km ou mais
sem nuvens abaixo de 1500 metros e sem cumulonimbus

METAR: ELLX 231820Z 07009KT CAVOK 06/M03 Q1035 NOSIG

Hora: 19:43 (18:43 UTC)

Previsão

O boletim foi feito há 1 hora e 43 minutos, às 17:00 UTC
Previsão válida de 23 às 18 UTC a 24 às 24 UTC
Vento 6 kt de nor-nordeste
Visibilidade 10 km ou mais
sem nuvens abaixo de 1500 metros e sem cumulonimbus
Temporariamente
de 24 às 08 UTC a 24 às 17 UTC
Vento 12 kt de es-nordeste

TAF: ELLX 231700Z 2318/2424 03006KT CAVOK TEMPO 2408/2417 07012KT

Observações e previsões do tempo de mais de 4000 aeroportos (mensagens METAR e TAF).

As estações disponíveis são os pontos amarelos e vermelhos sobre o mapa.

Mova o rato sobre o mapa para ver o nome da estação.

Depois clique no ponto para visualizar as observações e previsões meteorológicas.

Para alterar o mapa : clique nos botões verdes com uma cruz preta para aumentar o zoom; no botão verde com uma pitada de zoom; ou nas setas verdes para mapas adjacentes.


METAR-TAF: